createdAt,value
2022-11-29T00:01:34.856Z,6.80
2022-11-29T00:04:02.637Z,6.20
2022-11-29T00:06:32.087Z,6.95
2022-11-29T00:09:01.677Z,7.20
2022-11-29T00:11:49.237Z,6.50
2022-11-29T00:14:18.174Z,5.80
2022-11-29T00:16:45.469Z,4.50
2022-11-29T00:19:13.311Z,4.75
2022-11-29T00:21:40.442Z,5.93
2022-11-29T00:24:07.588Z,5.35
2022-11-29T00:26:34.524Z,11.38
2022-11-29T00:29:01.951Z,10.57
2022-11-29T00:31:31.596Z,7.80
2022-11-29T00:34:01.001Z,8.73
2022-11-29T00:36:28.038Z,8.85
2022-11-29T00:38:54.749Z,7.50
2022-11-29T00:41:21.660Z,9.50
2022-11-29T00:43:48.673Z,10.30
2022-11-29T00:46:15.648Z,8.88
2022-11-29T00:48:42.514Z,10.30
2022-11-29T00:51:09.771Z,8.70
2022-11-29T00:53:37.498Z,8.55
2022-11-29T00:56:05.359Z,7.57
2022-11-29T00:58:32.699Z,7.65
2022-11-29T01:00:59.622Z,5.97
2022-11-29T01:03:26.489Z,7.40
2022-11-29T01:05:53.424Z,7.75
2022-11-29T01:08:20.256Z,7.50
2022-11-29T01:10:47.131Z,6.25
2022-11-29T01:13:14.130Z,6.63
2022-11-29T01:15:41.637Z,6.78
2022-11-29T01:18:08.425Z,7.68
2022-11-29T01:20:35.253Z,8.00
2022-11-29T01:23:02.051Z,7.68
2022-11-29T01:25:29.467Z,6.28
2022-11-29T01:27:56.228Z,9.20
2022-11-29T01:30:23.107Z,10.38
2022-11-29T01:32:49.909Z,9.15
2022-11-29T01:35:16.716Z,8.45
2022-11-29T01:37:43.518Z,8.45
2022-11-29T01:40:12.102Z,8.38
2022-11-29T01:42:38.852Z,8.13
2022-11-29T01:45:08.544Z,7.13
2022-11-29T01:47:39.909Z,8.50
2022-11-29T01:50:08.272Z,7.53
2022-11-29T01:52:35.046Z,7.57
2022-11-29T01:55:05.849Z,8.93
2022-11-29T01:57:34.978Z,8.98
2022-11-29T02:00:08.857Z,7.75
2022-11-29T02:03:10.454Z,7.35
2022-11-29T02:05:44.517Z,6.05
2022-11-29T02:08:14.521Z,5.65
2022-11-29T02:13:20.392Z,4.50
2022-11-29T02:15:59.653Z,4.60
2022-11-29T02:18:37.224Z,4.20
2022-11-29T02:21:21.802Z,4.35
2022-11-29T02:24:03.405Z,4.28
2022-11-29T02:26:54.875Z,3.80
2022-11-29T02:29:42.640Z,4.00
2022-11-29T02:32:30.638Z,3.47
2022-11-29T02:35:33.450Z,3.25
2022-11-29T02:38:18.702Z,3.65
2022-11-29T02:40:58.036Z,3.08
2022-11-29T02:43:30.744Z,4.13
2022-11-29T02:46:23.443Z,3.60
2022-11-29T02:48:56.749Z,3.00
2022-11-29T02:51:39.265Z,3.03
2022-11-29T02:54:44.483Z,2.95
2022-11-29T02:57:28.085Z,2.92
2022-11-29T03:00:15.052Z,3.22
2022-11-29T03:02:56.970Z,4.72
2022-11-29T03:05:44.817Z,4.40
2022-11-29T03:08:23.545Z,4.25
2022-11-29T03:11:25.871Z,4.22
2022-11-29T03:14:11.279Z,9.10
2022-11-29T03:17:25.790Z,8.35
2022-11-29T03:20:21.228Z,7.90
2022-11-29T03:23:10.484Z,8.15
2022-11-29T03:25:42.556Z,7.38
2022-11-29T03:28:29.089Z,5.45
2022-11-29T03:31:11.324Z,6.13
2022-11-29T03:34:05.991Z,5.57
2022-11-29T03:36:51.120Z,6.82
2022-11-29T03:39:25.489Z,6.85
2022-11-29T03:41:59.014Z,6.10
2022-11-29T03:44:31.903Z,5.70
2022-11-29T03:47:12.727Z,5.03
2022-11-29T03:49:48.041Z,4.93
2022-11-29T03:52:25.053Z,5.63
2022-11-29T03:55:12.081Z,4.75
2022-11-29T03:57:41.567Z,4.28
2022-11-29T04:00:11.101Z,5.43
2022-11-29T04:02:52.633Z,4.53
2022-11-29T04:05:22.444Z,4.78
2022-11-29T04:08:00.823Z,4.53
2022-11-29T04:11:04.723Z,3.95
2022-11-29T04:13:51.713Z,3.67
2022-11-29T04:16:42.986Z,3.30
2022-11-29T04:19:53.649Z,4.00
2022-11-29T04:22:39.420Z,3.47
2022-11-29T04:25:48.238Z,3.92
2022-11-29T04:28:31.306Z,3.80
2022-11-29T04:31:16.528Z,3.75
2022-11-29T04:33:58.396Z,3.80
2022-11-29T04:36:31.130Z,3.90
2022-11-29T04:39:07.916Z,3.08
2022-11-29T04:42:22.955Z,3.40
2022-11-29T04:45:17.324Z,4.00
2022-11-29T04:47:59.242Z,4.55
2022-11-29T04:50:37.864Z,3.83
2022-11-29T04:53:14.851Z,3.97
2022-11-29T04:56:00.623Z,3.25
2022-11-29T04:58:33.094Z,3.33
2022-11-29T05:01:13.167Z,4.10
2022-11-29T05:04:21.137Z,4.13
2022-11-29T05:07:19.168Z,4.22
2022-11-29T05:10:07.753Z,2.72
2022-11-29T05:12:48.475Z,2.53
2022-11-29T05:15:43.397Z,4.50
2022-11-29T05:18:34.070Z,4.40
2022-11-29T05:21:16.712Z,4.45
2022-11-29T05:23:59.509Z,4.50
2022-11-29T05:26:32.519Z,4.45
2022-11-29T05:29:16.177Z,4.65
2022-11-29T05:34:46.627Z,3.80
2022-11-29T05:37:27.102Z,3.97
2022-11-29T05:40:15.180Z,4.05
2022-11-29T05:42:51.631Z,3.85
2022-11-29T05:45:25.720Z,3.80
2022-11-29T05:48:04.616Z,6.38
2022-11-29T05:50:56.245Z,4.82
2022-11-29T05:53:44.507Z,4.38
2022-11-29T05:56:40.576Z,4.68
2022-11-29T05:59:15.411Z,5.22
2022-11-29T06:02:19.686Z,5.10
2022-11-29T06:05:17.764Z,4.88
2022-11-29T06:08:20.144Z,4.78
2022-11-29T06:13:45.519Z,5.68
2022-11-29T06:16:30.819Z,6.55
2022-11-29T06:19:31.874Z,7.53
2022-11-29T06:22:21.371Z,4.80
2022-11-29T06:25:20.299Z,5.28
2022-11-29T06:28:05.880Z,6.68
2022-11-29T06:31:01.641Z,6.28
2022-11-29T06:33:43.554Z,7.95
2022-11-29T06:36:29.132Z,9.00
2022-11-29T06:38:56.156Z,8.88
2022-11-29T06:41:24.250Z,7.50
2022-11-29T06:43:51.563Z,9.02
2022-11-29T06:46:33.714Z,10.50
2022-11-29T06:49:03.941Z,9.27
2022-11-29T06:51:36.365Z,7.65
2022-11-29T06:54:24.283Z,7.93
2022-11-29T06:56:53.876Z,9.52
2022-11-29T06:59:32.963Z,9.75
2022-11-29T07:02:12.719Z,7.15
2022-11-29T07:05:14.148Z,8.65
2022-11-29T07:07:42.161Z,7.75
2022-11-29T07:10:17.104Z,7.90
2022-11-29T07:12:47.738Z,7.63
2022-11-29T07:15:17.067Z,6.80
2022-11-29T07:17:55.876Z,6.95
2022-11-29T07:20:28.398Z,5.70
2022-11-29T07:23:25.535Z,6.30
2022-11-29T07:26:04.321Z,4.90
2022-11-29T07:28:39.557Z,4.57
2022-11-29T07:31:25.565Z,6.50
2022-11-29T07:34:01.096Z,7.82
2022-11-29T07:36:49.085Z,5.05
2022-11-29T07:39:31.585Z,5.13
2022-11-29T07:42:42.876Z,5.65
2022-11-29T07:45:29.982Z,6.75
2022-11-29T07:47:56.742Z,5.28
2022-11-29T07:50:24.292Z,5.10
2022-11-29T07:52:51.141Z,4.82
2022-11-29T07:55:21.221Z,4.40
2022-11-29T07:57:49.058Z,4.60
2022-11-29T08:00:18.344Z,4.85
2022-11-29T08:02:46.096Z,4.40
2022-11-29T08:05:12.977Z,5.07
2022-11-29T08:07:41.339Z,6.10
2022-11-29T08:10:12.022Z,4.45
2022-11-29T08:12:43.943Z,6.10
2022-11-29T08:15:10.909Z,6.15
2022-11-29T08:17:39.046Z,4.88
2022-11-29T08:20:07.074Z,4.45
2022-11-29T08:22:34.884Z,4.53
2022-11-29T08:25:02.144Z,4.63
2022-11-29T08:27:30.926Z,4.13
2022-11-29T08:29:59.995Z,4.30
2022-11-29T08:32:27.560Z,4.85
2022-11-29T08:34:54.612Z,4.07
2022-11-29T08:37:21.542Z,3.53
2022-11-29T08:39:48.261Z,3.47
2022-11-29T08:42:15.034Z,5.90
2022-11-29T08:44:41.831Z,4.85
2022-11-29T08:47:28.934Z,5.72
2022-11-29T08:50:01.592Z,4.25
2022-11-29T08:52:52.752Z,4.70
2022-11-29T08:55:21.814Z,6.07
2022-11-29T08:57:50.501Z,6.38
2022-11-29T09:00:18.580Z,7.50
2022-11-29T09:02:45.431Z,6.88
2022-11-29T09:05:40.056Z,6.38
2022-11-29T09:08:08.380Z,4.82
2022-11-29T09:10:35.123Z,4.97
2022-11-29T09:13:01.826Z,5.18
2022-11-29T09:15:28.548Z,6.78
2022-11-29T09:17:55.365Z,9.00
2022-11-29T09:20:22.051Z,8.27
2022-11-29T09:22:48.906Z,6.43
2022-11-29T09:25:15.665Z,7.43
2022-11-29T09:27:42.480Z,7.15
2022-11-29T09:30:09.708Z,5.45
2022-11-29T09:32:36.472Z,7.50
2022-11-29T09:35:03.206Z,5.20
2022-11-29T09:37:30.018Z,5.22
2022-11-29T09:39:56.761Z,4.95
2022-11-29T09:42:45.331Z,5.10
2022-11-29T09:45:20.166Z,5.38
2022-11-29T09:47:52.772Z,4.22
2022-11-29T09:50:35.204Z,4.57
2022-11-29T09:53:22.287Z,4.60
2022-11-29T09:56:12.472Z,3.53
2022-11-29T09:58:48.650Z,3.38
2022-11-29T10:01:28.742Z,2.75
2022-11-29T10:04:00.982Z,3.45
2022-11-29T10:06:57.040Z,3.40
2022-11-29T10:12:42.897Z,3.55
2022-11-29T10:15:21.340Z,4.60
2022-11-29T10:17:50.845Z,8.32
2022-11-29T10:20:22.797Z,10.77
2022-11-29T10:23:11.395Z,10.88
2022-11-29T10:25:46.807Z,10.75
2022-11-29T10:28:18.838Z,12.50
2022-11-29T10:30:46.278Z,12.63
2022-11-29T10:33:20.886Z,13.55
2022-11-29T10:35:51.006Z,13.85
2022-11-29T10:38:33.017Z,14.77
2022-11-29T10:41:16.851Z,13.35
2022-11-29T10:43:43.781Z,14.18
2022-11-29T10:46:21.467Z,12.20
2022-11-29T10:48:48.603Z,12.75
2022-11-29T10:51:17.501Z,13.10
2022-11-29T10:53:45.944Z,17.02
2022-11-29T10:56:29.472Z,14.00
2022-11-29T10:58:58.294Z,13.60
2022-11-29T11:01:28.998Z,16.70
2022-11-29T11:03:58.803Z,13.68
2022-11-29T11:06:49.607Z,13.02
2022-11-29T11:09:34.641Z,13.18
2022-11-29T11:12:04.646Z,12.38
2022-11-29T11:14:38.083Z,12.82
2022-11-29T11:17:30.133Z,12.75
2022-11-29T11:20:04.548Z,14.90
2022-11-29T11:22:33.427Z,15.75
2022-11-29T11:25:04.251Z,14.13
2022-11-29T11:27:42.261Z,14.88
2022-11-29T11:30:22.491Z,14.32
2022-11-29T11:33:17.194Z,15.93
2022-11-29T11:35:44.056Z,14.35
2022-11-29T11:38:17.870Z,12.98
2022-11-29T11:40:45.343Z,15.23
2022-11-29T11:43:21.873Z,14.85
2022-11-29T11:45:53.578Z,15.63
2022-11-29T11:48:21.101Z,14.20
2022-11-29T11:50:57.882Z,14.82
2022-11-29T11:53:36.741Z,15.80
2022-11-29T11:56:05.317Z,16.98
2022-11-29T11:58:37.756Z,15.35
2022-11-29T12:01:13.600Z,29.15
2022-11-29T12:04:04.815Z,15.20
2022-11-29T12:06:35.815Z,14.43
2022-11-29T12:09:08.541Z,16.08
2022-11-29T12:11:53.539Z,14.98
2022-11-29T12:14:39.297Z,13.82
2022-11-29T12:17:32.494Z,14.30
2022-11-29T12:20:14.405Z,13.65
2022-11-29T12:22:49.291Z,12.70
2022-11-29T12:25:22.805Z,13.95
2022-11-29T12:27:50.859Z,13.07
2022-11-29T12:30:19.215Z,13.88
2022-11-29T12:32:51.698Z,12.63
2022-11-29T12:35:46.489Z,14.07
2022-11-29T12:38:48.554Z,12.45
2022-11-29T12:41:41.320Z,12.90
2022-11-29T12:44:19.381Z,11.98
2022-11-29T12:47:28.204Z,13.20
2022-11-29T12:50:14.015Z,11.63
2022-11-29T12:52:40.851Z,13.23
2022-11-29T12:55:20.662Z,15.43
2022-11-29T12:57:56.883Z,13.30
2022-11-29T13:00:28.941Z,11.30
2022-11-29T13:03:12.293Z,9.40
2022-11-29T13:05:48.722Z,6.93
2022-11-29T13:08:37.423Z,6.55
2022-11-29T13:11:28.586Z,6.72
2022-11-29T13:14:20.243Z,7.35
2022-11-29T13:17:01.859Z,6.88
2022-11-29T13:19:43.583Z,6.28
2022-11-29T13:22:40.013Z,6.35
2022-11-29T13:25:18.537Z,6.78
2022-11-29T13:28:01.855Z,6.20
2022-11-29T13:30:28.885Z,4.75
2022-11-29T13:33:33.365Z,5.60
2022-11-29T13:36:40.230Z,11.05
2022-11-29T13:39:37.779Z,12.43
2022-11-29T13:42:20.844Z,4.68
2022-11-29T13:45:24.125Z,6.72
2022-11-29T13:48:01.735Z,5.28
2022-11-29T13:50:45.011Z,7.97
2022-11-29T13:53:23.608Z,4.88
2022-11-29T13:56:02.633Z,4.20
2022-11-29T13:58:30.602Z,4.93
2022-11-29T14:01:26.754Z,5.85
2022-11-29T14:04:03.124Z,4.15
2022-11-29T14:06:38.137Z,4.72
2022-11-29T14:09:20.916Z,4.97
2022-11-29T14:11:50.202Z,5.53
2022-11-29T14:14:16.958Z,6.25
2022-11-29T14:16:43.766Z,6.32
2022-11-29T14:19:10.506Z,5.45
2022-11-29T14:21:56.356Z,12.05
2022-11-29T14:24:32.532Z,7.20
2022-11-29T14:27:14.178Z,6.05
2022-11-29T14:29:50.172Z,5.65
2022-11-29T14:32:35.887Z,6.25
2022-11-29T14:35:21.555Z,6.72
2022-11-29T14:37:51.272Z,5.88
2022-11-29T14:40:42.911Z,5.93
2022-11-29T14:43:30.983Z,5.40
2022-11-29T14:46:32.184Z,4.28
2022-11-29T14:49:01.539Z,5.15
2022-11-29T14:51:31.628Z,5.13
2022-11-29T14:54:19.687Z,4.40
2022-11-29T14:56:47.496Z,4.47
2022-11-29T15:00:02.534Z,4.65
2022-11-29T15:02:37.992Z,5.10
2022-11-29T15:05:27.950Z,4.53
2022-11-29T15:08:13.300Z,7.28
2022-11-29T15:10:43.328Z,10.07
2022-11-29T15:13:18.968Z,8.88
2022-11-29T15:16:31.394Z,5.25
2022-11-29T15:19:16.107Z,5.30
2022-11-29T15:21:45.585Z,4.82
2022-11-29T15:24:16.125Z,5.53
2022-11-29T15:26:59.265Z,6.80
2022-11-29T15:29:27.776Z,5.20
2022-11-29T15:31:57.955Z,6.75
2022-11-29T15:34:36.208Z,8.02
2022-11-29T15:37:03.803Z,9.77
2022-11-29T15:39:34.317Z,8.25
2022-11-29T15:42:12.995Z,10.05
2022-11-29T15:44:47.297Z,7.40
2022-11-29T15:47:15.997Z,7.55
2022-11-29T15:49:42.841Z,7.30
2022-11-29T15:52:20.329Z,7.25
2022-11-29T15:54:56.696Z,9.57
2022-11-29T15:57:35.412Z,8.30
2022-11-29T16:00:06.019Z,7.50
2022-11-29T16:02:37.099Z,8.02
2022-11-29T16:05:26.764Z,7.78
2022-11-29T16:08:00.602Z,8.50
2022-11-29T16:10:50.430Z,9.23
2022-11-29T16:13:37.047Z,12.00
2022-11-29T16:16:12.173Z,12.20
2022-11-29T16:18:41.477Z,14.38
2022-11-29T16:21:31.512Z,17.73
2022-11-29T16:23:58.950Z,18.70
2022-11-29T16:26:45.722Z,23.08
2022-11-29T16:29:21.406Z,19.77
2022-11-29T16:31:48.314Z,19.60
2022-11-29T16:34:27.828Z,25.33
2022-11-29T16:37:14.384Z,24.75
2022-11-29T16:39:45.857Z,19.70
2022-11-29T16:42:21.921Z,15.85
2022-11-29T16:45:32.313Z,15.40
2022-11-29T16:48:00.237Z,21.30
2022-11-29T16:50:30.896Z,18.65
2022-11-29T16:53:52.993Z,18.15
2022-11-29T16:56:28.139Z,18.60
2022-11-29T16:59:17.034Z,21.25
2022-11-29T17:01:51.251Z,24.15
2022-11-29T17:04:23.541Z,18.55
2022-11-29T17:06:52.801Z,14.48
2022-11-29T17:09:23.284Z,24.92
2022-11-29T17:11:50.239Z,19.67
2022-11-29T17:14:19.947Z,17.58
2022-11-29T17:16:49.943Z,13.80
2022-11-29T17:19:17.204Z,11.65
2022-11-29T17:21:44.725Z,13.98
2022-11-29T17:24:13.767Z,18.77
2022-11-29T17:26:41.368Z,18.30
2022-11-29T17:29:10.713Z,18.17
2022-11-29T17:31:37.564Z,16.13
2022-11-29T17:34:05.044Z,20.13
2022-11-29T17:36:32.801Z,21.38
2022-11-29T17:39:00.257Z,22.30
2022-11-29T17:41:28.311Z,17.20
2022-11-29T17:43:57.125Z,18.33
2022-11-29T17:46:26.619Z,17.25
2022-11-29T17:48:54.308Z,34.05
2022-11-29T17:51:50.560Z,51.25
2022-11-29T17:54:10.938Z,23.35
2022-11-29T17:56:37.969Z,23.60
2022-11-29T17:59:05.020Z,20.40
2022-11-29T18:01:34.839Z,17.52
2022-11-29T18:04:03.575Z,13.00
2022-11-29T18:06:35.964Z,12.88
2022-11-29T18:09:04.905Z,12.55
2022-11-29T18:11:46.467Z,12.68
2022-11-29T18:14:18.101Z,14.13
2022-11-29T18:16:45.733Z,15.68
2022-11-29T18:19:15.354Z,14.57
2022-11-29T18:21:42.446Z,13.48
2022-11-29T18:24:09.764Z,14.02
2022-11-29T18:26:37.929Z,14.18
2022-11-29T18:29:05.995Z,30.85
2022-11-29T18:31:38.154Z,23.67
2022-11-29T18:34:07.330Z,23.88
2022-11-29T18:36:40.093Z,25.98
2022-11-29T18:39:14.124Z,25.75
2022-11-29T18:41:45.554Z,29.67
2022-11-29T18:44:14.660Z,25.23
2022-11-29T18:46:43.922Z,21.13
2022-11-29T18:49:13.264Z,23.17
2022-11-29T18:51:42.824Z,19.23
2022-11-29T18:54:12.195Z,19.90
2022-11-29T18:56:39.265Z,24.10
2022-11-29T18:59:11.801Z,20.27
2022-11-29T19:01:42.809Z,16.10
2022-11-29T19:04:13.405Z,15.52
2022-11-29T19:06:41.174Z,13.77
2022-11-29T19:09:12.703Z,19.92
2022-11-29T19:11:41.086Z,32.03
2022-11-29T19:14:13.321Z,34.80
2022-11-29T19:16:46.679Z,35.67
2022-11-29T19:19:13.773Z,30.50
2022-11-29T19:21:40.977Z,23.75
2022-11-29T19:24:15.944Z,24.23
2022-11-29T19:26:45.673Z,23.77
2022-11-29T19:29:16.402Z,30.05
2022-11-29T19:31:43.634Z,32.50
2022-11-29T19:34:11.066Z,24.02
2022-11-29T19:36:43.661Z,18.17
2022-11-29T19:39:13.071Z,22.80
2022-11-29T19:41:43.045Z,25.42
2022-11-29T19:44:10.497Z,26.42
2022-11-29T19:46:40.890Z,23.58
2022-11-29T19:49:09.219Z,22.33
2022-11-29T19:51:37.139Z,25.25
2022-11-29T19:54:06.578Z,36.67
2022-11-29T19:56:33.731Z,32.08
2022-11-29T19:59:00.605Z,28.23
2022-11-29T20:01:40.194Z,26.80
2022-11-29T20:04:09.924Z,22.48
2022-11-29T20:06:37.131Z,18.92
2022-11-29T20:09:04.392Z,20.10
2022-11-29T20:11:31.378Z,23.83
2022-11-29T20:14:01.017Z,25.05
2022-11-29T20:16:30.000Z,25.73
2022-11-29T20:18:58.060Z,22.50
2022-11-29T20:21:32.891Z,20.02
2022-11-29T20:24:02.673Z,22.38
2022-11-29T20:26:34.748Z,22.23
2022-11-29T20:29:02.398Z,16.98
2022-11-29T20:31:30.177Z,21.88
2022-11-29T20:33:57.726Z,23.10
2022-11-29T20:36:40.392Z,25.10
2022-11-29T20:39:32.152Z,20.85
2022-11-29T20:42:31.607Z,15.10
2022-11-29T20:45:00.927Z,14.13
2022-11-29T20:47:32.797Z,13.48
2022-11-29T20:49:59.955Z,13.13
2022-11-29T20:52:53.392Z,17.00
2022-11-29T20:55:20.926Z,18.90
2022-11-29T20:57:48.197Z,20.98
2022-11-29T21:00:16.244Z,17.77
2022-11-29T21:02:43.312Z,16.52
2022-11-29T21:05:10.662Z,19.45
2022-11-29T21:07:37.586Z,17.65
2022-11-29T21:10:05.882Z,20.35
2022-11-29T21:12:33.596Z,21.83
2022-11-29T21:15:01.001Z,18.90
2022-11-29T21:17:33.531Z,20.13
2022-11-29T21:20:02.029Z,17.90
2022-11-29T21:22:47.070Z,17.08
2022-11-29T21:25:25.818Z,16.00
2022-11-29T21:27:55.027Z,17.77
2022-11-29T21:30:25.375Z,15.93
2022-11-29T21:32:55.625Z,13.30
2022-11-29T21:35:22.852Z,15.02
2022-11-29T21:37:54.767Z,15.90
2022-11-29T21:40:22.164Z,15.40
2022-11-29T21:42:49.122Z,13.13
2022-11-29T21:45:16.684Z,13.57
2022-11-29T21:47:44.400Z,13.23
2022-11-29T21:50:15.278Z,14.40
2022-11-29T21:52:43.742Z,12.48
2022-11-29T21:55:10.981Z,11.73
2022-11-29T21:57:39.058Z,10.98
2022-11-29T22:00:06.941Z,10.90
2022-11-29T22:02:33.837Z,11.15
2022-11-29T22:05:00.733Z,10.82
2022-11-29T22:07:27.538Z,8.98
2022-11-29T22:09:54.409Z,9.05
2022-11-29T22:12:34.301Z,9.50
2022-11-29T22:15:01.878Z,9.77
2022-11-29T22:17:28.692Z,7.80
2022-11-29T22:19:55.679Z,7.30
2022-11-29T22:22:23.141Z,7.97
2022-11-29T22:24:51.984Z,8.18
2022-11-29T22:27:20.638Z,8.90
2022-11-29T22:29:47.520Z,8.13
2022-11-29T22:32:17.160Z,8.48
2022-11-29T22:34:44.389Z,8.27
2022-11-29T22:37:12.591Z,13.85
2022-11-29T22:39:41.975Z,12.27
2022-11-29T22:42:08.932Z,12.50
2022-11-29T22:44:38.826Z,10.98
2022-11-29T22:47:05.701Z,10.90
2022-11-29T22:49:33.369Z,12.40
2022-11-29T22:52:00.702Z,11.13
2022-11-29T22:54:27.669Z,11.48
2022-11-29T22:56:54.602Z,11.75
2022-11-29T22:59:21.379Z,12.65
2022-11-29T23:01:48.530Z,12.30
2022-11-29T23:04:15.785Z,10.32
2022-11-29T23:06:45.127Z,8.93
2022-11-29T23:09:16.675Z,9.07
2022-11-29T23:11:45.073Z,8.48
2022-11-29T23:14:12.471Z,6.78
2022-11-29T23:16:39.450Z,7.20
2022-11-29T23:19:06.290Z,7.47
2022-11-29T23:21:35.658Z,7.35
2022-11-29T23:24:03.048Z,7.03
2022-11-29T23:26:39.722Z,6.82
2022-11-29T23:29:08.901Z,5.97
2022-11-29T23:31:35.650Z,5.05
2022-11-29T23:34:03.366Z,5.47
2022-11-29T23:36:30.618Z,5.55
2022-11-29T23:38:57.529Z,5.80
2022-11-29T23:41:24.446Z,5.57
2022-11-29T23:43:51.347Z,5.03
2022-11-29T23:46:23.463Z,4.60
2022-11-29T23:48:51.033Z,4.90
2022-11-29T23:51:19.271Z,5.00
2022-11-29T23:53:50.309Z,4.55
2022-11-29T23:56:21.111Z,5.03
2022-11-29T23:58:48.856Z,4.50
